Time;durP1;ratioP1;P1;durP2;ratioP2;P2;SDS_P1;SDS_P2;PMS_P1;PMS_P2;Temp;Humidity;BMP_temperature;BMP_pressure;BME280_temperature;BME280_humidity;BME280_pressure;Samples;Min_cycle;Max_cycle;Signal;HPM_P1;HPM_P2
2022/05/04 00:01:41;;;;;;;;;;;13.70;99.90;;;;;;5046531;28;19958;-70
2022/05/04 00:04:07;;;;;;;;;;;13.70;99.90;;;;;;5046005;28;19915;-74
2022/05/04 00:06:32;;;;;;;;;;;13.60;99.90;;;;;;5047367;28;19912;-71
2022/05/04 00:08:58;;;;;;;;;;;13.60;99.90;;;;;;5050420;28;19915;-71
2022/05/04 00:11:23;;;;;;;;;;;13.60;99.90;;;;;;5048052;28;19916;-71
2022/05/04 00:13:49;;;;;;;;;;;13.70;99.90;;;;;;5049805;28;20328;-69
2022/05/04 00:16:14;;;;;;;;;;;13.60;99.90;;;;;;5049428;28;19936;-71
2022/05/04 00:18:40;;;;;;;;;;;13.60;99.90;;;;;;5051003;28;20003;-72
2022/05/04 00:21:07;;;;;;;;;;;13.60;99.90;;;;;;5047547;28;19923;-71
2022/05/04 00:23:33;;;;;;;;;;;13.50;99.90;;;;;;5052377;28;20026;-71
2022/05/04 00:25:59;;;;;;;;;;;13.50;99.90;;;;;;5046796;28;19917;-71
2022/05/04 00:28:25;;;;;;;;;;;13.40;99.90;;;;;;5045967;28;19909;-72
2022/05/04 00:30:52;;;;;;;;;;;13.40;99.90;;;;;;5049895;28;20244;-72
2022/05/04 00:33:18;;;;;;;;;;;13.40;99.90;;;;;;5045247;28;19912;-72
2022/05/04 00:35:43;;;;;;;;;;;13.30;99.90;;;;;;5030209;28;19917;-72
2022/05/04 00:38:09;;;;;;;;;;;13.30;99.90;;;;;;5054932;28;19996;-72
2022/05/04 00:40:34;;;;;;;;;;;13.30;99.90;;;;;;5046683;28;19966;-71
2022/05/04 00:43:00;;;;;;;;;;;13.20;99.90;;;;;;5047989;28;20003;-72
2022/05/04 00:45:26;;;;;;;;;;;13.10;99.90;;;;;;5044991;28;20011;-71
2022/05/04 00:47:51;;;;;;;;;;;13.10;99.90;;;;;;5033932;28;20351;-71
2022/05/04 00:50:17;;;;;;;;;;;13.10;99.90;;;;;;5050271;28;19991;-72
2022/05/04 00:52:44;;;;;;;;;;;13.10;99.90;;;;;;5044478;28;20358;-72
2022/05/04 00:55:10;;;;;;;;;;;13.10;99.90;;;;;;5051272;28;19909;-72
2022/05/04 01:00:22;;;;;;;;;;;13.10;99.90;;;;;;5049537;28;19958;-71
2022/05/04 01:02:48;;;;;;;;;;;13.10;99.90;;;;;;5051636;28;19913;-72
2022/05/04 01:05:14;;;;;;;;;;;13.00;99.90;;;;;;5049300;28;20374;-72
2022/05/04 01:07:40;;;;;;;;;;;13.00;99.90;;;;;;5051257;28;19983;-72
2022/05/04 01:10:06;;;;;;;;;;;13.10;99.90;;;;;;5032825;28;20347;-74
2022/05/04 01:12:32;;;;;;;;;;;13.10;99.90;;;;;;5049138;28;19916;-72
2022/05/04 01:14:58;;;;;;;;;;;13.20;99.90;;;;;;5037781;28;19935;-71
2022/05/04 01:17:24;;;;;;;;;;;13.10;99.90;;;;;;5050361;28;19916;-73
2022/05/04 01:19:50;;;;;;;;;;;13.10;99.90;;;;;;5050749;28;20389;-71
2022/05/04 01:22:15;;;;;;;;;;;13.10;99.90;;;;;;5048260;28;19912;-71
2022/05/04 01:24:41;;;;;;;;;;;13.10;99.90;;;;;;5047084;28;19943;-71
2022/05/04 01:27:11;;;;;;;;;;;13.20;99.90;;;;;;5045940;28;19909;-72
2022/05/04 01:29:36;;;;;;;;;;;13.20;99.90;;;;;;5034231;28;19916;-72
2022/05/04 01:32:02;;;;;;;;;;;13.20;99.90;;;;;;5045453;28;19909;-72
2022/05/04 01:34:28;;;;;;;;;;;13.20;99.90;;;;;;5051348;28;19913;-72
2022/05/04 01:36:54;;;;;;;;;;;13.20;99.90;;;;;;5052527;28;19908;-71
2022/05/04 01:39:20;;;;;;;;;;;13.20;99.90;;;;;;5032311;28;20386;-71
2022/05/04 01:42:04;;;;;;;;;;;13.10;99.90;;;;;;5046872;28;19956;-71
2022/05/04 01:44:30;;;;;;;;;;;13.00;99.90;;;;;;5050432;28;19908;-72
2022/05/04 01:46:55;;;;;;;;;;;13.10;99.90;;;;;;5049215;28;19909;-71
2022/05/04 01:49:21;;;;;;;;;;;13.10;99.90;;;;;;5034454;28;19909;-72
2022/05/04 01:51:46;;;;;;;;;;;13.10;99.90;;;;;;5047480;28;20278;-71
2022/05/04 01:54:12;;;;;;;;;;;13.00;99.90;;;;;;5045136;28;19916;-71
2022/05/04 01:56:38;;;;;;;;;;;12.90;99.90;;;;;;5050190;28;19916;-73
2022/05/04 01:59:03;;;;;;;;;;;12.90;99.90;;;;;;5047817;28;19928;-71
2022/05/04 02:01:29;;;;;;;;;;;12.80;99.90;;;;;;5046225;28;19967;-72
2022/05/04 02:03:55;;;;;;;;;;;12.80;99.90;;;;;;5033201;28;19916;-71
2022/05/04 02:06:21;;;;;;;;;;;12.70;99.90;;;;;;5049903;28;19947;-71
2022/05/04 02:08:47;;;;;;;;;;;12.70;99.90;;;;;;5048534;28;19924;-72
2022/05/04 02:11:12;;;;;;;;;;;12.60;99.90;;;;;;5045464;28;19921;-71
2022/05/04 02:13:38;;;;;;;;;;;12.50;99.90;;;;;;5047788;28;20278;-71
2022/05/04 02:16:05;;;;;;;;;;;12.40;99.90;;;;;;5050149;28;19917;-71
2022/05/04 02:18:32;;;;;;;;;;;12.20;99.90;;;;;;5032248;28;19912;-72
2022/05/04 02:21:00;;;;;;;;;;;12.20;99.90;;;;;;5054205;28;19912;-72
2022/05/04 02:23:26;;;;;;;;;;;12.20;99.90;;;;;;5048599;28;19923;-72
2022/05/04 02:25:51;;;;;;;;;;;12.10;99.90;;;;;;5044589;28;20374;-71
2022/05/04 02:28:17;;;;;;;;;;;12.00;99.90;;;;;;5052091;28;19912;-71
2022/05/04 02:30:44;;;;;;;;;;;12.00;99.90;;;;;;5051611;28;19951;-72
2022/05/04 02:33:10;;;;;;;;;;;12.00;99.90;;;;;;5046520;28;19909;-71
2022/05/04 02:38:21;;;;;;;;;;;11.90;99.90;;;;;;5052728;28;20015;-71
2022/05/04 02:40:47;;;;;;;;;;;11.80;99.90;;;;;;5048590;28;19921;-71
2022/05/04 02:43:13;;;;;;;;;;;11.80;99.90;;;;;;5050570;28;19979;-71
2022/05/04 02:45:38;;;;;;;;;;;11.70;99.90;;;;;;5049498;28;19920;-71
2022/05/04 02:48:04;;;;;;;;;;;11.70;99.90;;;;;;5053670;28;19908;-72
2022/05/04 02:50:30;;;;;;;;;;;11.70;99.90;;;;;;5051963;28;20323;-72
2022/05/04 02:52:55;;;;;;;;;;;11.80;99.90;;;;;;5047280;28;20270;-70
2022/05/04 02:55:21;;;;;;;;;;;11.80;99.90;;;;;;5050195;28;20042;-71
2022/05/04 02:57:46;;;;;;;;;;;11.90;99.90;;;;;;5052164;28;19909;-72
2022/05/04 03:00:12;;;;;;;;;;;11.90;99.90;;;;;;5048614;28;19923;-72
2022/05/04 03:02:38;;;;;;;;;;;12.10;99.90;;;;;;5055648;28;20306;-71
2022/05/04 03:05:07;;;;;;;;;;;12.10;99.90;;;;;;5053263;28;19916;-71
2022/05/04 03:07:33;;;;;;;;;;;12.10;99.90;;;;;;5046861;28;19908;-71
2022/05/04 03:09:59;;;;;;;;;;;12.10;99.90;;;;;;5050858;28;19909;-72
2022/05/04 03:12:25;;;;;;;;;;;12.10;99.90;;;;;;5052306;28;19967;-71
2022/05/04 03:14:50;;;;;;;;;;;12.10;99.90;;;;;;5052935;28;19912;-71
2022/05/04 03:17:17;;;;;;;;;;;12.10;99.90;;;;;;5053368;28;19931;-72
2022/05/04 03:19:42;;;;;;;;;;;12.10;99.90;;;;;;5047926;28;20366;-71
2022/05/04 03:22:08;;;;;;;;;;;12.10;99.90;;;;;;5051140;28;19920;-72
2022/05/04 03:24:34;;;;;;;;;;;12.20;99.90;;;;;;5046379;28;19912;-71
2022/05/04 03:26:59;;;;;;;;;;;12.10;99.90;;;;;;5045125;28;19908;-72
2022/05/04 03:29:25;;;;;;;;;;;12.10;99.90;;;;;;5050636;28;19908;-71
2022/05/04 03:31:51;;;;;;;;;;;12.20;99.90;;;;;;5052088;28;19908;-72
2022/05/04 03:34:16;;;;;;;;;;;12.20;99.90;;;;;;5043912;28;19909;-71
2022/05/04 03:36:42;;;;;;;;;;;12.30;99.90;;;;;;5049486;28;19915;-71
2022/05/04 03:39:08;;;;;;;;;;;12.30;99.90;;;;;;5036054;28;19909;-71
2022/05/04 03:41:33;;;;;;;;;;;12.30;99.90;;;;;;5044497;28;19913;-72
2022/05/04 03:43:59;;;;;;;;;;;12.30;99.90;;;;;;5048517;28;19915;-72
2022/05/04 03:46:26;;;;;;;;;;;12.30;99.90;;;;;;5051333;28;19916;-71
2022/05/04 03:48:52;;;;;;;;;;;12.10;99.90;;;;;;5050508;28;19916;-72
2022/05/04 03:51:21;;;;;;;;;;;12.10;99.90;;;;;;5040724;28;19967;-72
2022/05/04 03:53:51;;;;;;;;;;;12.10;99.90;;;;;;5040528;28;19908;-71
2022/05/04 03:56:17;;;;;;;;;;;12.20;99.90;;;;;;5035143;28;19908;-72
2022/05/04 03:58:43;;;;;;;;;;;12.10;99.90;;;;;;5047178;28;20328;-72
2022/05/04 04:01:12;;;;;;;;;;;12.20;99.90;;;;;;5050977;28;19913;-72
2022/05/04 04:03:37;;;;;;;;;;;12.30;99.90;;;;;;5062304;28;20424;-72
2022/05/04 04:06:03;;;;;;;;;;;12.30;99.90;;;;;;5053134;28;19988;-71
2022/05/04 04:08:29;;;;;;;;;;;12.20;99.90;;;;;;5052249;28;20293;-71
2022/05/04 04:10:54;;;;;;;;;;;12.10;99.90;;;;;;5052720;28;19909;-71
2022/05/04 04:13:20;;;;;;;;;;;12.00;99.90;;;;;;5048569;28;20003;-72
2022/05/04 04:15:47;;;;;;;;;;;11.90;99.90;;;;;;5052590;28;20349;-72
2022/05/04 04:18:15;;;;;;;;;;;11.80;99.90;;;;;;5052698;28;20504;-71
2022/05/04 04:23:25;;;;;;;;;;;11.90;99.90;;;;;;5051847;28;19927;-72
2022/05/04 04:25:51;;;;;;;;;;;12.00;99.90;;;;;;5045253;28;19916;-71
2022/05/04 04:28:17;;;;;;;;;;;12.00;99.90;;;;;;5033811;28;20290;-72
2022/05/04 04:30:42;;;;;;;;;;;12.00;99.90;;;;;;5049909;28;19912;-72
2022/05/04 04:33:08;;;;;;;;;;;11.90;99.90;;;;;;5029894;28;19909;-71
2022/05/04 04:35:34;;;;;;;;;;;12.00;99.90;;;;;;5050406;28;20331;-71
2022/05/04 04:38:00;;;;;;;;;;;12.10;99.90;;;;;;5053794;28;19950;-72
2022/05/04 04:40:25;;;;;;;;;;;12.10;99.90;;;;;;5050181;28;20362;-72
2022/05/04 04:42:51;;;;;;;;;;;12.10;99.90;;;;;;5032017;28;20366;-72
2022/05/04 04:45:17;;;;;;;;;;;12.10;99.90;;;;;;5030219;28;19916;-71
2022/05/04 04:47:46;;;;;;;;;;;12.20;99.90;;;;;;5052657;28;19969;-71
2022/05/04 04:50:12;;;;;;;;;;;12.20;99.90;;;;;;5029782;28;20487;-72
2022/05/04 04:52:38;;;;;;;;;;;12.20;99.90;;;;;;5048601;28;19948;-71
2022/05/04 04:55:04;;;;;;;;;;;12.10;99.90;;;;;;5047981;28;20252;-70
2022/05/04 04:57:30;;;;;;;;;;;12.10;99.90;;;;;;5032978;28;20362;-73
2022/05/04 04:59:55;;;;;;;;;;;12.20;99.90;;;;;;5049835;28;19920;-71
2022/05/04 05:02:21;;;;;;;;;;;12.20;99.90;;;;;;5046757;28;20385;-71
2022/05/04 05:04:46;;;;;;;;;;;12.30;99.90;;;;;;5049563;28;19912;-72
2022/05/04 05:07:12;;;;;;;;;;;12.40;99.90;;;;;;5047774;28;19909;-71
2022/05/04 05:09:38;;;;;;;;;;;12.50;99.90;;;;;;5050596;28;19909;-72
2022/05/04 05:12:03;;;;;;;;;;;12.50;99.90;;;;;;5049152;28;19917;-72
2022/05/04 05:17:13;;;;;;;;;;;12.60;99.90;;;;;;5051279;28;19916;-72
2022/05/04 05:19:39;;;;;;;;;;;12.50;99.90;;;;;;5050426;28;19913;-72
2022/05/04 05:22:04;;;;;;;;;;;12.60;99.90;;;;;;5026299;28;19920;-72
2022/05/04 05:24:30;;;;;;;;;;;12.60;99.90;;;;;;5039908;28;19909;-73
2022/05/04 05:26:55;;;;;;;;;;;12.70;99.90;;;;;;5048952;28;19909;-72
2022/05/04 05:29:21;;;;;;;;;;;12.60;99.90;;;;;;5050543;28;19917;-72
2022/05/04 05:31:46;;;;;;;;;;;12.60;99.90;;;;;;5050853;28;19912;-72
2022/05/04 05:34:12;;;;;;;;;;;12.60;99.90;;;;;;5049550;28;19916;-73
2022/05/04 05:36:37;;;;;;;;;;;12.70;99.90;;;;;;5023772;28;19909;-71
2022/05/04 05:39:03;;;;;;;;;;;12.70;99.90;;;;;;5045356;28;19908;-72
2022/05/04 05:41:28;;;;;;;;;;;12.80;99.90;;;;;;5023001;28;19912;-71
2022/05/04 05:43:54;;;;;;;;;;;12.90;99.90;;;;;;5047418;28;19935;-74
2022/05/04 05:46:20;;;;;;;;;;;12.90;99.90;;;;;;5029097;28;19932;-72
2022/05/04 05:48:48;;;;;;;;;;;13.10;99.90;;;;;;5051365;28;19908;-72
2022/05/04 05:51:13;;;;;;;;;;;13.10;99.90;;;;;;5032691;28;19912;-71
2022/05/04 05:53:39;;;;;;;;;;;13.10;99.90;;;;;;5049957;28;19909;-72
2022/05/04 05:56:05;;;;;;;;;;;13.10;99.90;;;;;;5048671;28;19962;-72
2022/05/04 05:58:30;;;;;;;;;;;13.10;99.90;;;;;;5045112;28;19912;-73
2022/05/04 06:00:56;;;;;;;;;;;13.20;99.90;;;;;;5046903;28;19919;-72
2022/05/04 06:03:22;;;;;;;;;;;13.10;99.90;;;;;;5049596;28;19920;-72
2022/05/04 06:05:48;;;;;;;;;;;13.10;99.90;;;;;;5046086;28;19959;-72
2022/05/04 06:08:13;;;;;;;;;;;13.20;99.90;;;;;;5051812;28;20314;-72
2022/05/04 06:10:39;;;;;;;;;;;13.20;99.90;;;;;;5054998;28;20003;-72
2022/05/04 06:13:05;;;;;;;;;;;13.20;99.90;;;;;;5052013;28;19909;-73
2022/05/04 06:15:31;;;;;;;;;;;13.20;99.90;;;;;;5055186;28;19948;-73
2022/05/04 06:17:57;;;;;;;;;;;13.10;99.90;;;;;;5031810;28;19956;-72
2022/05/04 06:20:23;;;;;;;;;;;13.10;99.90;;;;;;5052410;28;20163;-71
2022/05/04 06:22:52;;;;;;;;;;;13.20;99.90;;;;;;5050572;28;19912;-72
2022/05/04 06:25:17;;;;;;;;;;;13.20;99.90;;;;;;5052394;28;19944;-73
2022/05/04 06:27:43;;;;;;;;;;;13.10;99.90;;;;;;5054036;28;19943;-72
2022/05/04 06:35:37;;;;;;;;;;;13.00;99.90;;;;;;5050505;28;19919;-73
2022/05/04 06:38:03;;;;;;;;;;;13.10;99.90;;;;;;5054736;28;19905;-72
2022/05/04 06:40:31;;;;;;;;;;;13.20;99.90;;;;;;5042797;28;20338;-73
2022/05/04 06:42:57;;;;;;;;;;;13.20;99.90;;;;;;5053350;28;19998;-73
2022/05/04 06:45:24;;;;;;;;;;;13.20;99.90;;;;;;5049544;28;19913;-72
2022/05/04 06:47:49;;;;;;;;;;;13.40;99.90;;;;;;5053702;28;20246;-72
2022/05/04 06:50:15;;;;;;;;;;;13.40;99.90;;;;;;5047344;28;20000;-73
2022/05/04 06:52:41;;;;;;;;;;;13.40;99.90;;;;;;5052866;28;19944;-72
2022/05/04 06:55:07;;;;;;;;;;;13.50;99.90;;;;;;5053946;28;19924;-73
2022/05/04 06:57:32;;;;;;;;;;;13.60;99.90;;;;;;5052439;28;20381;-72
2022/05/04 06:59:59;;;;;;;;;;;13.80;99.90;;;;;;5033856;28;20301;-73
2022/05/04 07:02:25;;;;;;;;;;;13.90;99.90;;;;;;5034168;28;20251;-73
2022/05/04 07:04:51;;;;;;;;;;;13.80;99.90;;;;;;5027773;28;19935;-74
2022/05/04 07:07:16;;;;;;;;;;;13.90;99.90;;;;;;5016473;28;19917;-73
2022/05/04 07:09:42;;;;;;;;;;;13.90;99.90;;;;;;5037202;28;19950;-72
2022/05/04 07:12:08;;;;;;;;;;;14.00;99.90;;;;;;5049447;28;19940;-74
2022/05/04 07:14:33;;;;;;;;;;;14.20;99.90;;;;;;5032307;28;19931;-73
2022/05/04 07:16:59;;;;;;;;;;;14.20;99.90;;;;;;5053283;28;19915;-74
2022/05/04 07:19:25;;;;;;;;;;;14.10;99.90;;;;;;5051656;28;19985;-71
2022/05/04 07:21:50;;;;;;;;;;;14.20;99.90;;;;;;5034959;28;19919;-71
2022/05/04 07:24:16;;;;;;;;;;;14.10;99.90;;;;;;5048965;28;19939;-72
2022/05/04 07:26:41;;;;;;;;;;;14.10;99.90;;;;;;5051365;28;19912;-72
2022/05/04 07:29:07;;;;;;;;;;;14.00;99.90;;;;;;5049687;28;20337;-71
2022/05/04 07:31:33;;;;;;;;;;;14.10;99.90;;;;;;5044614;28;19920;-73
2022/05/04 07:33:59;;;;;;;;;;;14.10;99.90;;;;;;5034785;28;19928;-73
2022/05/04 07:36:24;;;;;;;;;;;14.20;99.90;;;;;;5047074;28;19917;-72
2022/05/04 07:38:53;;;;;;;;;;;14.20;99.90;;;;;;5047056;28;20199;-72
2022/05/04 07:44:02;;;;;;;;;;;14.20;99.90;;;;;;5050145;28;19970;-71
2022/05/04 07:46:29;;;;;;;;;;;14.00;99.90;;;;;;5034046;28;19913;-72
2022/05/04 07:48:55;;;;;;;;;;;14.10;99.90;;;;;;5041833;28;19971;-74
2022/05/04 07:51:21;;;;;;;;;;;13.90;99.90;;;;;;5043342;28;19954;-72
2022/05/04 07:53:47;;;;;;;;;;;14.10;99.90;;;;;;5044214;28;19908;-71
2022/05/04 07:56:12;;;;;;;;;;;14.20;99.90;;;;;;5047699;28;19919;-73
2022/05/04 07:58:38;;;;;;;;;;;14.30;99.90;;;;;;5046728;28;20011;-70
2022/05/04 08:06:32;;;;;;;;;;;14.10;99.90;;;;;;5050146;28;19915;-72
2022/05/04 08:08:57;;;;;;;;;;;14.10;99.90;;;;;;5045480;28;20011;-72
2022/05/04 08:11:23;;;;;;;;;;;14.00;99.90;;;;;;5055072;28;20338;-72
2022/05/04 08:13:49;;;;;;;;;;;13.90;99.90;;;;;;5046703;28;19908;-72
2022/05/04 08:16:14;;;;;;;;;;;13.90;99.90;;;;;;5043562;28;20382;-71
2022/05/04 08:18:43;;;;;;;;;;;13.80;99.90;;;;;;5050600;28;19908;-71
2022/05/04 08:21:08;;;;;;;;;;;13.80;99.90;;;;;;5052815;28;19916;-71
2022/05/04 08:23:34;;;;;;;;;;;13.60;99.90;;;;;;5048447;28;19917;-70
2022/05/04 08:26:01;;;;;;;;;;;13.60;99.90;;;;;;5051161;28;20042;-72
2022/05/04 08:28:26;;;;;;;;;;;13.60;99.90;;;;;;5050938;28;19909;-71
2022/05/04 08:30:52;;;;;;;;;;;13.60;99.90;;;;;;5046516;28;19953;-72
2022/05/04 08:33:18;;;;;;;;;;;13.60;99.90;;;;;;5033262;28;19913;-71
2022/05/04 08:35:44;;;;;;;;;;;13.60;99.90;;;;;;5059043;28;20348;-71
2022/05/04 08:38:10;;;;;;;;;;;13.70;99.90;;;;;;5044628;28;19909;-71
2022/05/04 08:40:36;;;;;;;;;;;13.70;99.90;;;;;;5051451;28;19916;-71
2022/05/04 08:43:08;;;;;;;;;;;13.70;99.90;;;;;;5041737;28;19920;-71
2022/05/04 08:45:37;;;;;;;;;;;13.70;99.90;;;;;;5042428;28;20305;-72
2022/05/04 08:48:04;;;;;;;;;;;13.70;99.90;;;;;;5051953;28;19936;-72
2022/05/04 08:50:31;;;;;;;;;;;13.70;99.90;;;;;;5053634;28;19928;-72
2022/05/04 08:52:56;;;;;;;;;;;13.70;99.90;;;;;;5045349;28;20251;-71
2022/05/04 08:55:23;;;;;;;;;;;13.60;99.90;;;;;;5049463;28;19908;-71
2022/05/04 08:57:49;;;;;;;;;;;13.60;99.90;;;;;;5052870;28;19915;-72
2022/05/04 09:00:15;;;;;;;;;;;13.70;99.90;;;;;;5032843;28;19999;-72
2022/05/04 09:02:44;;;;;;;;;;;13.70;99.90;;;;;;5047571;28;20341;-72
2022/05/04 09:05:13;;;;;;;;;;;13.70;99.90;;;;;;5053036;28;19991;-73
2022/05/04 09:07:39;;;;;;;;;;;13.70;99.90;;;;;;5051854;28;19912;-72
2022/05/04 09:10:07;;;;;;;;;;;13.80;99.90;;;;;;5045968;28;20368;-72
2022/05/04 09:12:33;;;;;;;;;;;14.00;99.90;;;;;;5030183;28;20008;-73
2022/05/04 09:14:59;;;;;;;;;;;14.10;99.90;;;;;;5041719;28;20000;-73
2022/05/04 09:17:25;;;;;;;;;;;14.10;99.90;;;;;;5050139;28;19963;-73
2022/05/04 09:22:41;;;;;;;;;;;14.30;99.90;;;;;;5039280;28;20338;-73
2022/05/04 09:25:18;;;;;;;;;;;14.40;99.90;;;;;;5042332;28;19908;-72
2022/05/04 09:27:47;;;;;;;;;;;14.50;99.90;;;;;;5045911;28;19940;-73
2022/05/04 09:30:13;;;;;;;;;;;14.50;99.90;;;;;;5052536;28;19912;-73
2022/05/04 09:32:40;;;;;;;;;;;14.50;99.90;;;;;;5046043;28;19909;-72
2022/05/04 09:35:15;;;;;;;;;;;14.50;99.90;;;;;;5049600;28;20353;-72
2022/05/04 09:45:55;;;;;;;;;;;15.10;99.90;;;;;;5050725;28;20035;-73
2022/05/04 09:48:27;;;;;;;;;;;15.00;99.90;;;;;;5052423;28;19984;-73
2022/05/04 09:50:56;;;;;;;;;;;15.30;99.90;;;;;;5043412;28;20398;-73
2022/05/04 09:53:26;;;;;;;;;;;15.50;99.90;;;;;;5046231;28;19908;-73
2022/05/04 09:55:52;;;;;;;;;;;15.60;99.90;;;;;;5034699;28;19908;-72
2022/05/04 09:58:18;;;;;;;;;;;15.70;99.90;;;;;;5030619;28;19920;-72
2022/05/04 10:00:44;;;;;;;;;;;15.60;99.90;;;;;;5043732;28;19954;-73
2022/05/04 10:03:09;;;;;;;;;;;15.40;99.90;;;;;;5033574;28;19913;-73
2022/05/04 10:05:36;;;;;;;;;;;15.40;99.90;;;;;;5041588;28;19916;-73
2022/05/04 10:08:02;;;;;;;;;;;15.40;99.90;;;;;;5065993;28;19953;-73
2022/05/04 10:10:27;;;;;;;;;;;15.50;99.90;;;;;;5049730;28;20350;-73
2022/05/04 10:12:53;;;;;;;;;;;15.70;99.90;;;;;;5018592;28;19920;-73
2022/05/04 10:15:19;;;;;;;;;;;15.80;99.90;;;;;;5048737;28;19916;-73
2022/05/04 10:18:05;;;;;;;;;;;15.80;99.90;;;;;;5051403;28;19908;-74
2022/05/04 10:20:49;;;;;;;;;;;15.70;99.90;;;;;;5045889;28;19912;-73
2022/05/04 10:23:25;;;;;;;;;;;16.00;99.90;;;;;;5045586;28;19920;-72
2022/05/04 10:25:51;;;;;;;;;;;16.20;99.90;;;;;;5041336;28;19909;-73
2022/05/04 10:28:17;;;;;;;;;;;16.00;99.90;;;;;;5035126;28;19908;-73
2022/05/04 10:30:46;;;;;;;;;;;16.00;99.90;;;;;;5051626;28;20385;-73
2022/05/04 10:33:13;;;;;;;;;;;16.30;99.90;;;;;;5053742;28;19909;-72
2022/05/04 10:35:38;;;;;;;;;;;16.70;99.90;;;;;;5044464;28;19909;-73
2022/05/04 10:38:05;;;;;;;;;;;16.60;99.90;;;;;;5051350;28;19923;-73
2022/05/04 10:40:31;;;;;;;;;;;16.70;99.90;;;;;;5048371;28;20077;-73
2022/05/04 10:42:58;;;;;;;;;;;16.60;99.90;;;;;;5040183;28;19943;-75
2022/05/04 10:45:24;;;;;;;;;;;16.70;99.90;;;;;;5040254;28;19913;-73
2022/05/04 10:47:49;;;;;;;;;;;16.80;99.90;;;;;;5050619;28;20002;-72
2022/05/04 10:50:18;;;;;;;;;;;17.00;99.90;;;;;;5048053;28;19905;-73
2022/05/04 10:52:47;;;;;;;;;;;17.10;99.90;;;;;;5051966;28;19940;-73
2022/05/04 10:55:13;;;;;;;;;;;17.10;99.90;;;;;;5035212;28;19913;-74
2022/05/04 10:57:42;;;;;;;;;;;17.00;99.90;;;;;;5049651;28;19920;-73
2022/05/04 11:00:10;;;;;;;;;;;17.00;99.90;;;;;;5057058;28;19913;-72
2022/05/04 11:02:42;;;;;;;;;;;17.10;99.90;;;;;;5039589;28;20431;-74
2022/05/04 11:05:12;;;;;;;;;;;17.20;99.90;;;;;;5038357;28;19991;-72
2022/05/04 11:07:37;;;;;;;;;;;17.50;99.90;;;;;;5056520;28;19908;-73
2022/05/04 11:10:03;;;;;;;;;;;17.40;99.90;;;;;;5056547;28;20436;-73
2022/05/04 11:12:29;;;;;;;;;;;17.40;99.90;;;;;;5054244;28;19928;-72
2022/05/04 11:14:54;;;;;;;;;;;17.10;99.90;;;;;;5051529;28;19908;-73
2022/05/04 11:17:20;;;;;;;;;;;17.00;99.90;;;;;;5049646;28;20259;-73
2022/05/04 11:19:48;;;;;;;;;;;16.70;99.90;;;;;;5053823;28;20391;-72
2022/05/04 11:22:16;;;;;;;;;;;16.40;99.90;;;;;;5055445;28;19939;-72
2022/05/04 11:24:43;;;;;;;;;;;16.30;99.90;;;;;;5023673;28;19988;-72
2022/05/04 11:27:08;;;;;;;;;;;16.30;99.90;;;;;;5053761;28;19909;-74
2022/05/04 11:29:34;;;;;;;;;;;16.40;99.90;;;;;;5061243;28;19912;-74
2022/05/04 11:32:01;;;;;;;;;;;16.40;99.90;;;;;;5027184;28;19905;-74
2022/05/04 11:34:35;;;;;;;;;;;16.40;99.90;;;;;;5048268;28;19908;-72
2022/05/04 11:37:04;;;;;;;;;;;16.40;99.90;;;;;;5047481;28;19916;-73
2022/05/04 11:39:29;;;;;;;;;;;16.50;99.90;;;;;;5050307;28;19962;-74
2022/05/04 11:41:56;;;;;;;;;;;16.80;99.90;;;;;;5050878;28;19909;-73
2022/05/04 11:44:23;;;;;;;;;;;16.90;99.90;;;;;;5048747;28;20223;-73
2022/05/04 11:46:53;;;;;;;;;;;16.90;99.90;;;;;;5048191;28;19909;-72
2022/05/04 11:49:20;;;;;;;;;;;17.00;99.90;;;;;;5051918;28;20286;-74
2022/05/04 11:51:45;;;;;;;;;;;17.10;99.90;;;;;;5053178;28;19909;-73
2022/05/04 11:54:11;;;;;;;;;;;17.40;99.90;;;;;;5052223;28;19909;-74
2022/05/04 11:56:36;;;;;;;;;;;17.40;99.90;;;;;;5047814;28;19908;-74
2022/05/04 11:59:03;;;;;;;;;;;17.40;99.90;;;;;;5041815;28;19905;-73
2022/05/04 12:01:29;;;;;;;;;;;17.40;99.90;;;;;;5050946;28;19924;-73
2022/05/04 12:03:55;;;;;;;;;;;17.20;99.90;;;;;;5051348;28;19908;-73
2022/05/04 12:06:21;;;;;;;;;;;17.10;99.90;;;;;;5044644;28;19995;-73
2022/05/04 12:08:47;;;;;;;;;;;17.20;99.90;;;;;;5028678;28;20378;-72
2022/05/04 12:11:14;;;;;;;;;;;17.30;99.90;;;;;;5053732;28;19909;-73
2022/05/04 12:13:40;;;;;;;;;;;17.40;99.90;;;;;;5051711;28;19931;-73
2022/05/04 12:16:07;;;;;;;;;;;17.50;99.90;;;;;;5051415;28;19909;-72
2022/05/04 12:18:36;;;;;;;;;;;17.60;99.90;;;;;;5026037;28;19916;-73
2022/05/04 12:21:08;;;;;;;;;;;17.20;99.90;;;;;;5043006;28;20015;-72
2022/05/04 12:23:35;;;;;;;;;;;17.20;99.90;;;;;;5035361;28;19988;-72
2022/05/04 12:26:01;;;;;;;;;;;17.20;99.90;;;;;;5051263;28;19909;-73
2022/05/04 12:28:27;;;;;;;;;;;17.40;99.90;;;;;;5034279;28;19919;-73
2022/05/04 12:33:40;;;;;;;;;;;17.40;99.90;;;;;;5050587;28;20095;-73
2022/05/04 12:36:07;;;;;;;;;;;17.40;99.90;;;;;;5049921;28;19943;-73
2022/05/04 12:38:34;;;;;;;;;;;17.50;99.90;;;;;;5037874;28;19912;-73
2022/05/04 12:41:01;;;;;;;;;;;17.50;99.90;;;;;;5036447;28;19924;-73
2022/05/04 12:43:33;;;;;;;;;;;17.70;99.90;;;;;;5051202;28;19916;-73
2022/05/04 12:45:59;;;;;;;;;;;17.70;99.90;;;;;;5034459;28;19940;-73
2022/05/04 12:48:25;;;;;;;;;;;17.50;99.90;;;;;;5052485;28;20274;-74
2022/05/04 12:50:55;;;;;;;;;;;17.40;99.90;;;;;;5049899;28;19909;-74
2022/05/04 12:53:20;;;;;;;;;;;17.30;99.90;;;;;;5052496;28;19911;-73
2022/05/04 12:58:30;;;;;;;;;;;17.50;99.90;;;;;;5052811;28;19919;-73
2022/05/04 13:00:55;;;;;;;;;;;17.60;99.90;;;;;;5032104;28;20015;-73
2022/05/04 13:03:21;;;;;;;;;;;17.70;99.90;;;;;;5048328;28;20441;-73
2022/05/04 13:05:47;;;;;;;;;;;18.00;99.90;;;;;;5047466;28;19939;-73
2022/05/04 13:08:13;;;;;;;;;;;17.90;99.90;;;;;;5050332;28;19916;-73
2022/05/04 13:10:38;;;;;;;;;;;18.10;99.90;;;;;;5050439;28;19908;-72
2022/05/04 13:13:04;;;;;;;;;;;18.30;99.90;;;;;;5024785;28;19928;-73
2022/05/04 13:15:31;;;;;;;;;;;18.30;99.90;;;;;;5041388;28;19908;-73
2022/05/04 13:17:56;;;;;;;;;;;18.40;99.90;;;;;;5047840;28;19958;-74
2022/05/04 13:20:22;;;;;;;;;;;18.60;99.40;;;;;;5049346;28;19921;-72
2022/05/04 13:22:47;;;;;;;;;;;18.60;99.60;;;;;;5055127;28;19909;-73
2022/05/04 13:25:15;;;;;;;;;;;18.30;99.90;;;;;;5051324;28;20012;-73
2022/05/04 13:27:41;;;;;;;;;;;18.20;99.90;;;;;;5051110;28;19966;-74
2022/05/04 13:30:06;;;;;;;;;;;18.00;99.90;;;;;;5049867;28;19905;-72
2022/05/04 13:32:32;;;;;;;;;;;17.80;99.90;;;;;;5043637;28;19986;-74
2022/05/04 13:34:58;;;;;;;;;;;18.00;99.90;;;;;;5051166;28;19905;-73
2022/05/04 13:37:23;;;;;;;;;;;18.20;99.90;;;;;;5047177;28;19916;-72
2022/05/04 13:39:49;;;;;;;;;;;18.00;99.90;;;;;;5043027;28;19913;-73
2022/05/04 13:42:15;;;;;;;;;;;17.90;99.90;;;;;;5049775;28;19991;-72
2022/05/04 13:44:40;;;;;;;;;;;17.70;99.90;;;;;;5050636;28;19904;-72
2022/05/04 13:47:07;;;;;;;;;;;17.80;99.90;;;;;;5049138;28;19991;-73
2022/05/04 13:49:32;;;;;;;;;;;17.80;99.90;;;;;;5052269;28;19971;-73
2022/05/04 13:54:42;;;;;;;;;;;17.70;99.90;;;;;;5047026;28;19979;-73
2022/05/04 13:57:08;;;;;;;;;;;17.70;99.90;;;;;;5035600;28;20003;-73
2022/05/04 13:59:34;;;;;;;;;;;17.60;99.90;;;;;;5035637;28;19908;-74
2022/05/04 14:01:59;;;;;;;;;;;17.70;99.90;;;;;;5021980;28;19962;-73
2022/05/04 14:04:25;;;;;;;;;;;17.60;99.90;;;;;;5047530;28;19909;-73
2022/05/04 14:06:50;;;;;;;;;;;17.50;99.90;;;;;;5043576;28;19956;-74
2022/05/04 14:09:16;;;;;;;;;;;17.40;99.90;;;;;;5033563;28;19948;-73
2022/05/04 14:11:42;;;;;;;;;;;17.50;99.90;;;;;;5048676;28;19917;-74
2022/05/04 14:16:53;;;;;;;;;;;17.50;99.90;;;;;;5049728;28;20049;-74
2022/05/04 14:19:19;;;;;;;;;;;17.80;99.90;;;;;;5047900;28;19916;-73
2022/05/04 14:21:45;;;;;;;;;;;18.00;99.90;;;;;;5037893;28;19947;-73
2022/05/04 14:24:11;;;;;;;;;;;18.20;99.90;;;;;;5049778;28;20007;-73
2022/05/04 14:26:36;;;;;;;;;;;17.90;99.90;;;;;;5046679;28;20020;-74
2022/05/04 14:29:02;;;;;;;;;;;17.60;99.90;;;;;;5040914;28;19928;-73
2022/05/04 14:31:28;;;;;;;;;;;17.70;99.90;;;;;;5029099;28;20366;-74
2022/05/04 14:33:53;;;;;;;;;;;18.00;99.90;;;;;;5035979;28;19909;-73
2022/05/04 14:36:24;;;;;;;;;;;18.10;99.90;;;;;;5050902;28;20003;-73
2022/05/04 14:38:50;;;;;;;;;;;18.30;99.90;;;;;;5053753;28;20357;-73
2022/05/04 14:41:15;;;;;;;;;;;18.00;99.90;;;;;;5032688;28;19916;-74
2022/05/04 14:43:41;;;;;;;;;;;18.10;99.90;;;;;;5049860;28;19970;-74
2022/05/04 14:46:07;;;;;;;;;;;18.30;99.90;;;;;;5033807;28;19916;-73
2022/05/04 14:48:32;;;;;;;;;;;18.30;99.90;;;;;;5048365;28;19908;-74
2022/05/04 14:50:58;;;;;;;;;;;18.20;99.90;;;;;;5053540;28;20007;-74
2022/05/04 14:53:23;;;;;;;;;;;18.40;99.90;;;;;;5050879;28;19912;-73
2022/05/04 14:55:51;;;;;;;;;;;18.30;99.90;;;;;;5043970;28;20375;-73
2022/05/04 14:58:16;;;;;;;;;;;18.80;99.90;;;;;;5032505;28;19909;-73